Time;durP1;ratioP1;P1;durP2;ratioP2;P2;SDS_P1;SDS_P2;PMS_P1;PMS_P2;Temp;Humidity;BMP_temperature;BMP_pressure;BME280_temperature;BME280_humidity;BME280_pressure;Samples;Min_cycle;Max_cycle;Signal;HPM_P1;HPM_P2
2023/10/03 00:00:49;;;;;;;25.85;8.82;;;;;;;;;;4935555;29;20051;-63
2023/10/03 00:03:17;;;;;;;31.55;9.23;;;;;;;;;;4950908;28;20166;-61
2023/10/03 00:05:46;;;;;;;28.85;9.25;;;;;;;;;;4957020;28;20117;-62
2023/10/03 00:08:13;;;;;;;27.80;9.40;;;;;;;;;;4952515;28;20058;-61
2023/10/03 00:10:40;;;;;;;31.00;9.98;;;;;;;;;;4946441;28;20086;-62
2023/10/03 00:13:08;;;;;;;32.83;9.75;;;;;;;;;;4942865;28;20138;-61
2023/10/03 00:15:36;;;;;;;34.15;9.50;;;;;;;;;;4958621;28;20051;-63
2023/10/03 00:18:04;;;;;;;30.73;9.10;;;;;;;;;;4936363;28;20055;-62
2023/10/03 00:20:31;;;;;;;31.50;9.65;;;;;;;;;;4944497;28;20054;-63
2023/10/03 00:22:59;;;;;;;29.20;9.05;;;;;;;;;;4941587;28;20046;-64
2023/10/03 00:25:26;;;;;;;33.60;10.57;;;;;;;;;;4940331;28;20051;-60
2023/10/03 00:27:57;;;;;;;32.25;9.52;;;;;;;;;;4955576;28;20065;-63
2023/10/03 00:30:24;;;;;;;28.92;8.20;;;;;;;;;;4945785;28;20062;-64
2023/10/03 00:32:52;;;;;;;36.92;10.55;;;;;;;;;;4968531;28;20072;-64
2023/10/03 00:35:19;;;;;;;34.53;9.93;;;;;;;;;;4955614;28;20173;-63
2023/10/03 00:37:47;;;;;;;26.70;8.90;;;;;;;;;;4955637;28;20047;-62
2023/10/03 00:40:27;;;;;;;29.70;9.88;;;;;;;;;;4956475;28;20129;-62
2023/10/03 00:42:59;;;;;;;36.53;10.50;;;;;;;;;;4956544;28;20082;-61
2023/10/03 00:45:26;;;;;;;35.30;10.20;;;;;;;;;;4948909;28;20067;-62
2023/10/03 00:47:54;;;;;;;32.63;9.80;;;;;;;;;;4940599;28;20067;-63
2023/10/03 00:50:23;;;;;;;34.17;10.00;;;;;;;;;;4938735;28;20058;-62
2023/10/03 00:53:05;;;;;;;37.00;10.98;;;;;;;;;;4929067;28;20065;-63
2023/10/03 00:55:35;;;;;;;36.60;9.57;;;;;;;;;;4954768;28;20062;-64
2023/10/03 00:58:07;;;;;;;34.55;9.98;;;;;;;;;;4932751;28;20055;-62
2023/10/03 01:00:37;;;;;;;33.95;9.43;;;;;;;;;;4959199;28;20051;-62
2023/10/03 01:03:05;;;;;;;35.10;10.20;;;;;;;;;;4944934;28;20065;-64
2023/10/03 01:05:32;;;;;;;36.33;9.35;;;;;;;;;;4959501;28;20054;-61
2023/10/03 01:07:58;;;;;;;37.25;10.10;;;;;;;;;;4950750;28;20059;-62
2023/10/03 01:10:28;;;;;;;33.35;9.57;;;;;;;;;;4958965;28;20073;-62
2023/10/03 01:12:59;;;;;;;32.65;9.85;;;;;;;;;;4954586;28;20066;-62
2023/10/03 01:15:28;;;;;;;29.83;9.68;;;;;;;;;;4956340;28;20177;-63
2023/10/03 01:17:59;;;;;;;32.60;9.35;;;;;;;;;;4935338;28;20082;-61
2023/10/03 01:20:30;;;;;;;33.97;8.98;;;;;;;;;;4940215;28;20121;-63
2023/10/03 01:22:57;;;;;;;31.25;9.40;;;;;;;;;;4940465;28;20054;-62
2023/10/03 01:25:27;;;;;;;31.87;8.60;;;;;;;;;;4954435;28;20126;-59
2023/10/03 01:27:56;;;;;;;31.05;9.32;;;;;;;;;;4935348;28;20054;-61
2023/10/03 01:30:23;;;;;;;31.10;10.15;;;;;;;;;;4940269;28;20058;-61
2023/10/03 01:32:53;;;;;;;31.08;9.35;;;;;;;;;;4950673;28;20063;-60
2023/10/03 01:35:22;;;;;;;37.33;10.13;;;;;;;;;;4976149;28;20164;-62
2023/10/03 01:37:49;;;;;;;34.22;9.68;;;;;;;;;;4963607;28;20062;-62
2023/10/03 01:40:16;;;;;;;30.40;9.48;;;;;;;;;;4963965;28;20126;-60
2023/10/03 01:42:46;;;;;;;30.63;9.98;;;;;;;;;;4943401;28;20058;-61
2023/10/03 01:45:15;;;;;;;37.38;10.85;;;;;;;;;;4958377;28;20054;-62
2023/10/03 01:47:45;;;;;;;32.67;9.77;;;;;;;;;;4944519;28;20063;-62
2023/10/03 01:50:12;;;;;;;32.17;9.90;;;;;;;;;;4956090;28;20121;-60
2023/10/03 01:52:40;;;;;;;32.60;10.10;;;;;;;;;;4960774;28;20134;-62
2023/10/03 01:55:09;;;;;;;31.70;9.40;;;;;;;;;;4934127;28;20055;-60
2023/10/03 01:57:37;;;;;;;35.17;10.38;;;;;;;;;;4943961;28;20132;-61
2023/10/03 02:00:18;;;;;;;37.33;9.43;;;;;;;;;;4953371;28;20074;-62
2023/10/03 02:02:45;;;;;;;32.17;9.15;;;;;;;;;;4961678;28;20062;-61
2023/10/03 02:05:13;;;;;;;33.47;9.80;;;;;;;;;;4913648;28;20047;-60
2023/10/03 02:07:41;;;;;;;31.92;9.30;;;;;;;;;;4926185;28;20153;-61
2023/10/03 02:10:12;;;;;;;39.23;10.53;;;;;;;;;;4961618;28;20062;-61
2023/10/03 02:12:40;;;;;;;33.97;9.20;;;;;;;;;;4960939;28;20088;-62
2023/10/03 02:15:09;;;;;;;33.10;7.97;;;;;;;;;;4944605;28;20134;-62
2023/10/03 02:17:36;;;;;;;33.13;9.50;;;;;;;;;;4944790;28;20162;-60
2023/10/03 02:20:13;;;;;;;34.22;9.77;;;;;;;;;;4943800;28;20066;-61
2023/10/03 02:22:41;;;;;;;37.95;10.00;;;;;;;;;;4942716;28;20078;-64
2023/10/03 02:25:09;;;;;;;33.85;10.35;;;;;;;;;;4914805;28;20210;-59
2023/10/03 02:27:35;;;;;;;37.83;10.13;;;;;;;;;;4957247;28;20149;-60
2023/10/03 02:30:12;;;;;;;37.92;10.90;;;;;;;;;;4960278;28;20122;-62
2023/10/03 02:32:39;;;;;;;36.40;10.43;;;;;;;;;;4953385;28;20108;-60
2023/10/03 02:35:08;;;;;;;29.88;8.95;;;;;;;;;;4970465;28;20057;-62
2023/10/03 02:37:35;;;;;;;31.17;8.77;;;;;;;;;;4977673;28;20066;-61
2023/10/03 02:40:02;;;;;;;34.63;9.63;;;;;;;;;;4944380;28;20066;-64
2023/10/03 02:42:29;;;;;;;36.28;10.18;;;;;;;;;;4923561;29;20059;-61
2023/10/03 02:44:58;;;;;;;31.63;9.30;;;;;;;;;;4934684;28;20069;-60
2023/10/03 02:47:26;;;;;;;31.95;9.65;;;;;;;;;;4921181;28;20055;-60
2023/10/03 02:49:53;;;;;;;32.80;9.02;;;;;;;;;;4923097;29;20066;-60
2023/10/03 02:52:19;;;;;;;41.25;11.13;;;;;;;;;;4925828;29;20085;-60
2023/10/03 02:54:48;;;;;;;32.22;8.90;;;;;;;;;;4918983;29;20055;-61
2023/10/03 02:57:15;;;;;;;25.15;8.18;;;;;;;;;;4936794;28;20483;-60
2023/10/03 02:59:44;;;;;;;29.10;9.57;;;;;;;;;;4928683;28;20062;-59
2023/10/03 03:02:12;;;;;;;32.90;9.98;;;;;;;;;;4944477;28;20055;-60
2023/10/03 03:04:41;;;;;;;35.95;10.27;;;;;;;;;;4939005;28;20081;-62
2023/10/03 03:07:08;;;;;;;31.30;9.32;;;;;;;;;;4954732;28;20066;-61
2023/10/03 03:09:36;;;;;;;32.70;8.80;;;;;;;;;;4942096;28;20058;-60
2023/10/03 03:12:03;;;;;;;30.17;8.48;;;;;;;;;;4961781;28;20062;-59
2023/10/03 03:14:29;;;;;;;33.33;9.60;;;;;;;;;;4948272;28;20170;-61
2023/10/03 03:16:57;;;;;;;28.55;8.98;;;;;;;;;;4956137;28;20054;-63
2023/10/03 03:19:26;;;;;;;33.08;9.30;;;;;;;;;;4957171;28;20054;-61
2023/10/03 03:21:57;;;;;;;31.35;8.82;;;;;;;;;;4942137;28;20069;-63
2023/10/03 03:24:33;;;;;;;32.65;8.18;;;;;;;;;;4938513;28;20059;-62
2023/10/03 03:27:00;;;;;;;32.03;9.35;;;;;;;;;;4937222;28;20137;-61
2023/10/03 03:29:35;;;;;;;32.95;8.73;;;;;;;;;;4943218;28;20066;-60
2023/10/03 03:32:04;;;;;;;27.73;8.30;;;;;;;;;;4966336;28;20061;-60
2023/10/03 03:34:31;;;;;;;28.73;8.63;;;;;;;;;;4959039;28;20046;-60
2023/10/03 03:37:20;;;;;;;31.33;9.18;;;;;;;;;;4944658;28;20070;-60
2023/10/03 03:39:53;;;;;;;27.77;7.40;;;;;;;;;;4941713;28;20062;-61
2023/10/03 03:42:22;;;;;;;24.17;7.93;;;;;;;;;;4942725;28;20118;-61
2023/10/03 03:44:48;;;;;;;24.48;7.80;;;;;;;;;;4947378;28;20059;-60
2023/10/03 03:47:18;;;;;;;32.08;8.98;;;;;;;;;;4935907;28;20136;-62
2023/10/03 03:49:44;;;;;;;30.88;7.88;;;;;;;;;;4941157;28;20059;-62
2023/10/03 03:52:16;;;;;;;28.17;8.18;;;;;;;;;;4944780;28;20055;-61
2023/10/03 03:54:43;;;;;;;30.23;8.00;;;;;;;;;;4954392;28;20050;-62
2023/10/03 03:57:11;;;;;;;23.70;7.13;;;;;;;;;;4953819;28;20077;-63
2023/10/03 03:59:38;;;;;;;27.05;7.40;;;;;;;;;;4945329;28;20055;-60
2023/10/03 04:02:05;;;;;;;29.65;7.78;;;;;;;;;;4941862;28;20066;-62
2023/10/03 04:04:32;;;;;;;21.20;6.05;;;;;;;;;;4955235;28;20097;-62
2023/10/03 04:06:59;;;;;;;30.80;7.53;;;;;;;;;;4953199;28;20058;-62
2023/10/03 04:09:27;;;;;;;21.10;6.55;;;;;;;;;;4943118;28;20067;-60
2023/10/03 04:11:54;;;;;;;21.83;6.13;;;;;;;;;;4942346;28;20102;-62
2023/10/03 04:14:22;;;;;;;21.02;6.38;;;;;;;;;;4936857;28;20059;-60
2023/10/03 04:16:48;;;;;;;19.23;5.57;;;;;;;;;;4941265;28;20120;-60
2023/10/03 04:19:15;;;;;;;20.55;6.63;;;;;;;;;;4940525;28;20055;-60
2023/10/03 04:21:42;;;;;;;18.00;5.93;;;;;;;;;;4957486;28;20058;-61
2023/10/03 04:24:10;;;;;;;19.35;6.30;;;;;;;;;;4927983;28;20164;-62
2023/10/03 04:26:41;;;;;;;19.65;5.68;;;;;;;;;;4959204;28;20062;-60
2023/10/03 04:29:11;;;;;;;19.65;5.30;;;;;;;;;;4951603;28;20058;-60
2023/10/03 04:31:38;;;;;;;19.27;4.53;;;;;;;;;;4958502;28;20089;-60
2023/10/03 04:34:07;;;;;;;15.38;4.18;;;;;;;;;;4936277;28;20070;-60
2023/10/03 04:36:35;;;;;;;16.05;3.58;;;;;;;;;;4945321;28;20050;-59
2023/10/03 04:39:03;;;;;;;;;;;;;;;;;;4953417;28;20083;-60
2023/10/03 04:41:30;;;;;;;11.55;3.13;;;;;;;;;;4974214;28;19954;-60
2023/10/03 04:44:02;;;;;;;22.63;3.78;;;;;;;;;;4954766;28;20093;-60
2023/10/03 04:46:28;;;;;;;17.00;3.15;;;;;;;;;;4958732;28;20165;-61
2023/10/03 04:48:55;;;;;;;10.75;3.00;;;;;;;;;;4953791;28;20059;-62
2023/10/03 04:51:22;;;;;;;13.60;3.20;;;;;;;;;;4953358;28;20058;-60
2023/10/03 04:53:48;;;;;;;12.88;4.35;;;;;;;;;;4940586;28;20117;-59
2023/10/03 04:56:17;;;;;;;21.50;6.95;;;;;;;;;;4958351;28;20078;-56
2023/10/03 04:58:43;;;;;;;13.82;4.78;;;;;;;;;;4958385;28;20058;-61
2023/10/03 05:01:19;;;;;;;12.23;3.25;;;;;;;;;;4956231;28;20246;-64
2023/10/03 05:03:47;;;;;;;12.13;3.13;;;;;;;;;;4918243;28;20089;-63
2023/10/03 05:06:23;;;;;;;12.27;3.28;;;;;;;;;;4904624;28;20062;-63
2023/10/03 05:08:51;;;;;;;11.48;3.10;;;;;;;;;;4945286;28;20054;-60
2023/10/03 05:11:20;;;;;;;11.23;2.90;;;;;;;;;;4961096;28;20078;-62
2023/10/03 05:13:48;;;;;;;13.57;3.17;;;;;;;;;;4942288;28;20316;-60
2023/10/03 05:16:16;;;;;;;12.15;4.03;;;;;;;;;;4933634;28;20058;-60
2023/10/03 05:18:42;;;;;;;14.80;3.47;;;;;;;;;;4962271;28;20090;-62
2023/10/03 05:21:10;;;;;;;9.70;2.55;;;;;;;;;;4937366;28;20098;-61
2023/10/03 05:23:37;;;;;;;9.97;2.63;;;;;;;;;;4960747;28;20085;-60
2023/10/03 05:26:04;;;;;;;12.07;3.10;;;;;;;;;;4972208;28;20124;-62
2023/10/03 05:28:31;;;;;;;13.05;3.22;;;;;;;;;;4963884;28;20054;-60
2023/10/03 05:30:59;;;;;;;10.95;2.83;;;;;;;;;;4951254;28;20081;-60
2023/10/03 05:33:27;;;;;;;9.20;2.70;;;;;;;;;;4974934;28;20062;-61
2023/10/03 05:35:54;;;;;;;8.45;2.72;;;;;;;;;;4979377;28;20057;-60
2023/10/03 05:38:23;;;;;;;7.15;2.70;;;;;;;;;;4977081;28;20066;-59
2023/10/03 05:40:51;;;;;;;7.82;2.92;;;;;;;;;;4944473;28;20054;-61
2023/10/03 05:43:20;;;;;;;12.82;2.60;;;;;;;;;;4955373;28;20063;-62
2023/10/03 05:45:49;;;;;;;9.60;2.47;;;;;;;;;;4949068;28;20153;-63
2023/10/03 05:48:17;;;;;;;5.55;2.20;;;;;;;;;;4961816;28;20065;-62
2023/10/03 05:50:46;;;;;;;17.45;2.63;;;;;;;;;;4961434;28;20066;-61
2023/10/03 05:53:12;;;;;;;;;;;;;;;;;;4941786;28;20407;-62
2023/10/03 05:55:39;;;;;;;13.68;2.78;;;;;;;;;;4925440;28;19933;-61
2023/10/03 05:58:20;;;;;;;9.90;2.42;;;;;;;;;;4945668;28;20058;-62
2023/10/03 06:03:28;;;;;;;15.30;2.78;;;;;;;;;;4933632;28;20178;-62
2023/10/03 06:05:57;;;;;;;8.40;2.40;;;;;;;;;;4921768;28;20058;-61
2023/10/03 06:08:25;;;;;;;6.07;2.70;;;;;;;;;;4960338;28;20073;-60
2023/10/03 06:10:56;;;;;;;11.82;2.70;;;;;;;;;;4959768;28;20066;-63
2023/10/03 06:13:24;;;;;;;9.77;2.42;;;;;;;;;;4941899;28;20059;-63
2023/10/03 06:15:53;;;;;;;;;;;;;;;;;;4948334;28;20070;-60
2023/10/03 06:18:20;;;;;;;9.35;3.20;;;;;;;;;;4960841;28;19940;-62
2023/10/03 06:20:49;;;;;;;11.70;3.10;;;;;;;;;;4941490;28;20054;-62
2023/10/03 06:23:17;;;;;;;10.88;3.63;;;;;;;;;;4953917;28;20081;-63
2023/10/03 06:25:44;;;;;;;13.52;3.42;;;;;;;;;;4930271;28;20061;-61
2023/10/03 06:28:11;;;;;;;11.70;2.92;;;;;;;;;;4957691;28;20150;-63
2023/10/03 06:30:38;;;;;;;17.45;3.90;;;;;;;;;;4959033;28;20264;-62
2023/10/03 06:33:08;;;;;;;14.02;4.72;;;;;;;;;;4942668;28;20407;-64
2023/10/03 06:35:36;;;;;;;9.32;3.00;;;;;;;;;;4892948;28;20097;-62
2023/10/03 06:38:04;;;;;;;11.05;4.28;;;;;;;;;;4944131;28;20070;-61
2023/10/03 06:40:32;;;;;;;11.02;3.20;;;;;;;;;;4941740;28;20059;-62
2023/10/03 06:43:01;;;;;;;12.73;2.80;;;;;;;;;;4931878;28;20063;-63
2023/10/03 06:45:28;;;;;;;16.85;3.13;;;;;;;;;;4913894;28;20063;-62
2023/10/03 06:47:55;;;;;;;14.55;3.33;;;;;;;;;;4937056;28;20165;-62
2023/10/03 06:50:23;;;;;;;11.02;3.10;;;;;;;;;;4921010;29;20095;-61
2023/10/03 06:52:53;;;;;;;;;;;;;;;;;;4920840;29;20239;-64
2023/10/03 06:55:20;;;;;;;7.63;2.50;;;;;;;;;;4923753;28;19930;-64
2023/10/03 06:57:48;;;;;;;12.75;4.10;;;;;;;;;;4939560;28;20063;-63
2023/10/03 07:00:17;;;;;;;8.02;2.58;;;;;;;;;;4922240;28;20079;-63
2023/10/03 07:02:44;;;;;;;12.10;2.95;;;;;;;;;;4940877;28;20063;-63
2023/10/03 07:05:13;;;;;;;13.48;3.30;;;;;;;;;;4905676;28;20082;-62
2023/10/03 07:07:40;;;;;;;18.45;3.80;;;;;;;;;;4935168;28;20055;-62
2023/10/03 07:10:10;;;;;;;5.93;2.40;;;;;;;;;;4938766;28;20137;-60
2023/10/03 07:12:38;;;;;;;9.82;3.10;;;;;;;;;;4940743;28;20161;-61
2023/10/03 07:15:11;;;;;;;8.45;2.55;;;;;;;;;;4900846;28;20109;-60
2023/10/03 07:17:38;;;;;;;10.30;2.65;;;;;;;;;;4939476;29;20117;-59
2023/10/03 07:20:08;;;;;;;10.85;3.15;;;;;;;;;;4938762;29;20069;-60
2023/10/03 07:22:37;;;;;;;8.15;2.67;;;;;;;;;;4938377;29;20051;-62
2023/10/03 07:25:08;;;;;;;9.88;3.03;;;;;;;;;;4918422;28;20066;-62
2023/10/03 07:27:35;;;;;;;19.05;4.00;;;;;;;;;;4944937;29;20109;-60
2023/10/03 07:30:18;;;;;;;9.95;4.50;;;;;;;;;;4939833;29;20059;-63
2023/10/03 07:32:48;;;;;;;9.57;3.20;;;;;;;;;;4938394;28;20062;-60
2023/10/03 07:35:19;;;;;;;9.75;2.42;;;;;;;;;;4901664;28;20047;-62
2023/10/03 07:37:46;;;;;;;9.63;2.60;;;;;;;;;;4946197;28;20054;-61
2023/10/03 07:40:14;;;;;;;6.80;2.35;;;;;;;;;;4936769;28;20117;-62
2023/10/03 07:42:42;;;;;;;;;;;;;;;;;;4953934;28;20063;-63
2023/10/03 07:45:10;;;;;;;9.90;2.15;;;;;;;;;;4915675;28;20091;-60
2023/10/03 07:47:39;;;;;;;7.13;1.92;;;;;;;;;;4939387;28;20059;-59
2023/10/03 07:50:07;;;;;;;10.02;2.50;;;;;;;;;;4938180;28;20404;-61
2023/10/03 07:52:34;;;;;;;4.68;1.75;;;;;;;;;;4938308;28;20071;-61
2023/10/03 07:55:05;;;;;;;4.88;1.52;;;;;;;;;;4897171;28;20100;-61
2023/10/03 07:57:31;;;;;;;8.48;3.22;;;;;;;;;;4938610;29;20150;-60
2023/10/03 07:59:59;;;;;;;11.75;3.00;;;;;;;;;;4938850;28;20062;-60
2023/10/03 08:02:32;;;;;;;6.53;1.90;;;;;;;;;;4937811;29;20067;-62
2023/10/03 08:05:01;;;;;;;6.40;1.40;;;;;;;;;;4931697;28;20059;-62
2023/10/03 08:07:31;;;;;;;5.57;1.27;;;;;;;;;;4942706;28;20130;-60
2023/10/03 08:10:02;;;;;;;7.53;1.75;;;;;;;;;;4939781;28;20067;-61
2023/10/03 08:12:29;;;;;;;7.65;1.60;;;;;;;;;;4930400;28;20087;-62
2023/10/03 08:14:58;;;;;;;8.38;1.63;;;;;;;;;;4888341;28;20059;-62
2023/10/03 08:17:26;;;;;;;6.50;1.35;;;;;;;;;;4918555;29;20052;-64
2023/10/03 08:19:54;;;;;;;3.55;1.40;;;;;;;;;;4935867;28;20226;-61
2023/10/03 08:22:22;;;;;;;4.10;1.10;;;;;;;;;;4939381;29;20059;-62
2023/10/03 08:24:59;;;;;;;4.38;1.33;;;;;;;;;;4900585;28;20055;-62
2023/10/03 08:27:30;;;;;;;6.50;1.40;;;;;;;;;;4951319;28;20066;-61
2023/10/03 08:29:58;;;;;;;4.82;1.35;;;;;;;;;;4937112;29;20082;-61
2023/10/03 08:32:25;;;;;;;4.28;1.45;;;;;;;;;;4945299;28;20182;-59
2023/10/03 08:34:52;;;;;;;7.25;1.42;;;;;;;;;;4950312;28;20054;-61
2023/10/03 08:37:22;;;;;;;8.80;1.30;;;;;;;;;;4943789;28;20142;-61
2023/10/03 08:39:50;;;;;;;3.60;1.30;;;;;;;;;;4934328;28;20072;-61
2023/10/03 08:42:18;;;;;;;;;;;;;;;;;;4923593;28;20398;-60
2023/10/03 08:44:51;;;;;;;8.75;1.38;;;;;;;;;;4948395;28;19945;-60
2023/10/03 08:47:21;;;;;;;3.28;1.10;;;;;;;;;;4932256;28;20055;-62
2023/10/03 08:49:56;;;;;;;3.75;1.17;;;;;;;;;;4934814;29;20055;-62
2023/10/03 08:52:39;;;;;;;3.85;0.93;;;;;;;;;;4919902;28;20062;-60
2023/10/03 08:55:09;;;;;;;3.95;1.00;;;;;;;;;;4904389;28;20059;-59
2023/10/03 08:57:37;;;;;;;5.20;0.80;;;;;;;;;;4919282;29;20059;-61
2023/10/03 09:00:05;;;;;;;4.63;1.02;;;;;;;;;;4918120;29;20094;-62
2023/10/03 09:02:45;;;;;;;2.60;0.95;;;;;;;;;;4922899;29;20150;-60
2023/10/03 09:05:19;;;;;;;3.78;0.80;;;;;;;;;;4860894;28;20139;-61
2023/10/03 09:07:46;;;;;;;2.85;0.65;;;;;;;;;;4942431;28;20059;-61
2023/10/03 09:10:24;;;;;;;6.40;0.93;;;;;;;;;;4936853;28;20125;-59
2023/10/03 09:12:52;;;;;;;2.30;0.82;;;;;;;;;;4925549;28;20293;-61
2023/10/03 09:15:22;;;;;;;3.20;0.80;;;;;;;;;;4923207;29;21180;-60
2023/10/03 09:17:50;;;;;;;1.20;0.43;;;;;;;;;;4934709;28;20135;-61
2023/10/03 09:20:21;;;;;;;4.93;1.00;;;;;;;;;;4917149;29;20056;-61
2023/10/03 09:22:48;;;;;;;2.88;0.70;;;;;;;;;;4918748;29;20123;-62
2023/10/03 09:25:19;;;;;;;5.65;1.10;;;;;;;;;;4909151;29;20062;-61
2023/10/03 09:27:59;;;;;;;3.75;1.00;;;;;;;;;;4928509;28;20134;-61
2023/10/03 09:30:25;;;;;;;4.82;0.82;;;;;;;;;;4943023;29;20051;-61
2023/10/03 09:33:04;;;;;;;5.53;0.70;;;;;;;;;;4946111;28;20050;-60
2023/10/03 09:35:33;;;;;;;6.82;1.00;;;;;;;;;;4893255;28;20210;-61
2023/10/03 09:38:05;;;;;;;5.57;1.52;;;;;;;;;;4939347;28;20141;-63
2023/10/03 09:40:49;;;;;;;5.90;1.77;;;;;;;;;;4937088;28;20059;-62
2023/10/03 09:43:19;;;;;;;1.58;0.57;;;;;;;;;;4932131;28;20059;-63
2023/10/03 09:45:47;;;;;;;5.60;1.13;;;;;;;;;;4925822;28;20054;-63
2023/10/03 09:48:15;;;;;;;3.07;0.50;;;;;;;;;;4940460;28;20134;-62
2023/10/03 09:50:51;;;;;;;;;;;;;;;;;;4936258;29;20306;-61
2023/10/03 09:53:20;;;;;;;5.07;0.60;;;;;;;;;;4947630;28;19952;-61
2023/10/03 09:55:53;;;;;;;2.60;0.60;;;;;;;;;;4922770;28;20063;-61
2023/10/03 09:58:24;;;;;;;2.17;0.60;;;;;;;;;;4947972;28;20060;-61
2023/10/03 10:00:53;;;;;;;2.63;0.73;;;;;;;;;;4940215;29;20059;-64
2023/10/03 10:03:26;;;;;;;4.50;0.80;;;;;;;;;;4935962;28;20047;-63
2023/10/03 10:06:12;;;;;;;4.32;0.63;;;;;;;;;;4913179;28;20061;-62
2023/10/03 10:08:46;;;;;;;3.47;0.52;;;;;;;;;;4939521;28;20055;-63
2023/10/03 10:11:21;;;;;;;5.22;0.77;;;;;;;;;;4933248;28;20063;-63
2023/10/03 10:14:08;;;;;;;4.32;1.25;;;;;;;;;;4939410;28;20063;-63
2023/10/03 10:16:36;;;;;;;3.08;0.70;;;;;;;;;;4927958;29;20079;-63
2023/10/03 10:19:04;;;;;;;5.35;0.50;;;;;;;;;;4936788;28;20047;-63
2023/10/03 10:21:36;;;;;;;2.22;0.45;;;;;;;;;;4938828;29;20054;-62
2023/10/03 10:24:28;;;;;;;3.90;0.47;;;;;;;;;;4940368;28;20146;-62
2023/10/03 10:26:59;;;;;;;8.20;0.60;;;;;;;;;;4927251;28;20170;-61
2023/10/03 10:29:28;;;;;;;2.95;0.57;;;;;;;;;;4939114;28;21746;-60
2023/10/03 10:31:58;;;;;;;2.42;0.47;;;;;;;;;;4942375;28;20081;-62
2023/10/03 10:34:40;;;;;;;9.80;2.15;;;;;;;;;;4967514;28;20132;-61
2023/10/03 10:37:10;;;;;;;7.22;1.10;;;;;;;;;;4955401;28;20058;-60
2023/10/03 10:40:09;;;;;;;2.42;0.60;;;;;;;;;;4979172;28;20074;-61
2023/10/03 10:43:06;;;;;;;2.55;0.60;;;;;;;;;;4970269;28;20085;-60
2023/10/03 10:45:38;;;;;;;2.65;0.60;;;;;;;;;;4950243;28;20094;-60
2023/10/03 10:48:06;;;;;;;3.97;0.70;;;;;;;;;;4965216;28;20055;-61
2023/10/03 10:51:08;;;;;;;1.63;0.40;;;;;;;;;;4959835;28;20058;-63
2023/10/03 10:53:43;;;;;;;4.97;1.63;;;;;;;;;;4954460;28;20061;-61
2023/10/03 10:56:11;;;;;;;4.88;1.17;;;;;;;;;;4944518;28;20125;-61
2023/10/03 10:59:01;;;;;;;5.53;1.20;;;;;;;;;;4942295;28;20093;-61
2023/10/03 11:01:28;;;;;;;5.60;0.77;;;;;;;;;;4957321;28;20294;-60
2023/10/03 11:03:56;;;;;;;6.00;0.98;;;;;;;;;;4953790;28;20057;-61
2023/10/03 11:06:23;;;;;;;3.42;0.40;;;;;;;;;;4955595;28;20098;-61
2023/10/03 11:08:53;;;;;;;5.32;0.75;;;;;;;;;;4948172;28;20133;-62
2023/10/03 11:11:19;;;;;;;4.30;0.90;;;;;;;;;;4934859;28;20059;-61
2023/10/03 11:13:56;;;;;;;5.30;0.90;;;;;;;;;;4922033;29;20047;-62
2023/10/03 11:16:25;;;;;;;1.73;0.50;;;;;;;;;;4917270;29;20299;-61
2023/10/03 11:18:54;;;;;;;2.67;0.70;;;;;;;;;;4920581;29;20071;-63
2023/10/03 11:21:22;;;;;;;3.17;0.80;;;;;;;;;;4924191;29;20138;-61
2023/10/03 11:24:08;;;;;;;1.73;0.70;;;;;;;;;;4939182;28;20063;-62
2023/10/03 11:26:42;;;;;;;5.53;0.70;;;;;;;;;;4893819;28;20059;-61
2023/10/03 11:29:11;;;;;;;1.63;0.50;;;;;;;;;;4948847;28;20062;-61
2023/10/03 11:31:39;;;;;;;3.25;0.80;;;;;;;;;;4941759;28;20114;-62
2023/10/03 11:34:06;;;;;;;4.50;0.82;;;;;;;;;;4960582;28;20066;-62
2023/10/03 11:36:41;;;;;;;2.95;0.50;;;;;;;;;;4954742;28;20122;-61
2023/10/03 11:39:10;;;;;;;2.72;0.80;;;;;;;;;;4937070;28;20118;-62
2023/10/03 11:41:38;;;;;;;2.90;0.68;;;;;;;;;;4922595;29;20059;-61
2023/10/03 11:44:07;;;;;;;2.92;0.85;;;;;;;;;;4923167;29;20059;-62
2023/10/03 11:46:39;;;;;;;3.65;0.70;;;;;;;;;;4922497;28;20050;-61
2023/10/03 11:49:08;;;;;;;0.95;0.50;;;;;;;;;;4952977;28;20051;-61
2023/10/03 11:51:38;;;;;;;;;;;;;;;;;;4961344;28;20069;-59
2023/10/03 11:54:08;;;;;;;1.67;0.70;;;;;;;;;;4976969;28;19925;-61
2023/10/03 11:56:40;;;;;;;5.25;0.98;;;;;;;;;;4935886;28;20050;-64
2023/10/03 11:59:08;;;;;;;3.15;0.80;;;;;;;;;;4951984;28;20154;-65
2023/10/03 12:01:35;;;;;;;5.78;0.90;;;;;;;;;;4978860;28;20066;-64
2023/10/03 12:04:06;;;;;;;6.90;1.27;;;;;;;;;;4962718;28;20113;-63
2023/10/03 12:06:33;;;;;;;3.85;0.88;;;;;;;;;;4939565;28;20072;-67
2023/10/03 12:09:00;;;;;;;7.37;1.37;;;;;;;;;;4951592;28;20069;-65
2023/10/03 12:11:27;;;;;;;9.27;2.78;;;;;;;;;;4940357;28;20055;-63
2023/10/03 12:13:54;;;;;;;6.38;1.05;;;;;;;;;;4945821;28;20050;-64
2023/10/03 12:16:22;;;;;;;3.97;1.20;;;;;;;;;;4937199;28;20090;-62
2023/10/03 12:18:49;;;;;;;6.10;0.95;;;;;;;;;;4939371;28;20073;-63
2023/10/03 12:21:18;;;;;;;6.47;1.10;;;;;;;;;;4948748;28;20081;-61
2023/10/03 12:23:45;;;;;;;4.00;0.88;;;;;;;;;;4957709;28;20062;-63
2023/10/03 12:26:12;;;;;;;5.63;1.58;;;;;;;;;;4920846;28;20054;-65
2023/10/03 12:28:38;;;;;;;8.52;2.13;;;;;;;;;;4969301;28;20066;-65
2023/10/03 12:31:06;;;;;;;6.55;1.02;;;;;;;;;;4942237;28;20062;-68
2023/10/03 12:33:33;;;;;;;7.38;1.25;;;;;;;;;;4977867;28;20083;-66
2023/10/03 12:36:03;;;;;;;7.13;1.98;;;;;;;;;;4941178;28;20058;-67
2023/10/03 12:38:33;;;;;;;3.78;0.93;;;;;;;;;;4957609;28;20063;-62
2023/10/03 12:41:01;;;;;;;3.88;0.88;;;;;;;;;;4937408;28;20063;-65
2023/10/03 12:43:27;;;;;;;5.68;1.38;;;;;;;;;;4950581;28;20165;-62
2023/10/03 12:45:54;;;;;;;5.20;1.23;;;;;;;;;;4927366;28;20066;-64
2023/10/03 12:48:21;;;;;;;6.50;1.30;;;;;;;;;;4970888;28;20103;-64
2023/10/03 12:50:50;;;;;;;4.03;1.10;;;;;;;;;;4955995;28;20088;-64
2023/10/03 12:53:16;;;;;;;;;;;;;;;;;;4942216;28;20054;-69
2023/10/03 12:55:46;;;;;;;3.72;1.13;;;;;;;;;;4898231;28;20122;-65
2023/10/03 12:58:18;;;;;;;9.95;1.20;;;;;;;;;;4941296;28;20150;-66
2023/10/03 13:00:47;;;;;;;7.18;1.35;;;;;;;;;;4943105;28;20148;-64
2023/10/03 13:03:14;;;;;;;8.52;1.40;;;;;;;;;;4939317;28;20074;-68
2023/10/03 13:05:40;;;;;;;9.20;1.38;;;;;;;;;;4952364;28;20062;-64
2023/10/03 13:08:12;;;;;;;4.55;1.23;;;;;;;;;;4958731;28;20342;-67
2023/10/03 13:10:41;;;;;;;6.55;0.95;;;;;;;;;;4958151;28;20063;-66
2023/10/03 13:13:10;;;;;;;5.90;1.40;;;;;;;;;;4954418;28;20067;-66
2023/10/03 13:15:36;;;;;;;6.57;1.00;;;;;;;;;;4924511;28;20066;-64
2023/10/03 13:18:04;;;;;;;10.43;1.60;;;;;;;;;;4941224;28;20053;-66
2023/10/03 13:20:33;;;;;;;9.35;2.00;;;;;;;;;;4940807;28;20091;-66
2023/10/03 13:23:01;;;;;;;8.20;1.52;;;;;;;;;;4934578;28;20082;-64
2023/10/03 13:25:28;;;;;;;8.35;1.50;;;;;;;;;;4950305;28;20063;-63
2023/10/03 13:27:54;;;;;;;10.05;2.67;;;;;;;;;;4958846;28;20062;-62
2023/10/03 13:30:26;;;;;;;11.60;2.50;;;;;;;;;;4958325;28;20058;-67
2023/10/03 13:32:55;;;;;;;5.00;1.60;;;;;;;;;;4949465;28;20081;-63
2023/10/03 13:35:24;;;;;;;9.15;2.33;;;;;;;;;;4950552;28;20079;-64
2023/10/03 13:37:51;;;;;;;12.50;1.67;;;;;;;;;;4982657;28;20073;-61
2023/10/03 13:40:18;;;;;;;9.80;1.50;;;;;;;;;;4963894;28;20101;-68
2023/10/03 13:42:47;;;;;;;8.13;1.60;;;;;;;;;;4983477;28;20074;-68
2023/10/03 13:45:15;;;;;;;;;;;;;;;;;;4932297;28;20068;-66
2023/10/03 13:47:45;;;;;;;6.95;1.10;;;;;;;;;;4961090;28;19997;-71
2023/10/03 13:50:12;;;;;;;6.90;1.00;;;;;;;;;;4944107;28;20065;-68
2023/10/03 13:52:43;;;;;;;7.22;1.23;;;;;;;;;;4944723;28;20090;-64
2023/10/03 13:55:12;;;;;;;3.60;1.02;;;;;;;;;;4949108;28;20138;-72
2023/10/03 13:57:40;;;;;;;4.82;1.38;;;;;;;;;;4918176;28;20059;-67
2023/10/03 14:00:12;;;;;;;6.28;1.13;;;;;;;;;;4945981;28;20058;-69
2023/10/03 14:02:47;;;;;;;5.15;1.30;;;;;;;;;;4946229;28;20185;-65
2023/10/03 14:05:19;;;;;;;10.02;1.15;;;;;;;;;;4938526;28;20066;-63
2023/10/03 14:07:46;;;;;;;3.10;1.10;;;;;;;;;;4971937;28;20559;-68
2023/10/03 14:10:16;;;;;;;5.50;1.17;;;;;;;;;;4959766;28;20120;-64
2023/10/03 14:12:45;;;;;;;7.38;1.20;;;;;;;;;;4953320;28;20062;-66
2023/10/03 14:15:13;;;;;;;3.45;1.30;;;;;;;;;;4923461;28;20913;-68
2023/10/03 14:17:40;;;;;;;2.92;1.00;;;;;;;;;;4951953;28;20055;-71
2023/10/03 14:20:10;;;;;;;5.60;0.90;;;;;;;;;;4960533;28;20059;-69
2023/10/03 14:22:39;;;;;;;4.03;1.00;;;;;;;;;;4946030;28;20055;-72
2023/10/03 14:25:11;;;;;;;5.35;1.05;;;;;;;;;;4945757;28;20105;-63
2023/10/03 14:27:39;;;;;;;4.45;1.15;;;;;;;;;;4941492;28;20082;-65
2023/10/03 14:30:11;;;;;;;4.18;1.13;;;;;;;;;;4943662;28;20145;-66
2023/10/03 14:32:40;;;;;;;7.15;1.13;;;;;;;;;;4951514;28;20055;-62
2023/10/03 14:35:12;;;;;;;2.95;0.98;;;;;;;;;;4936563;28;20102;-66
2023/10/03 14:37:38;;;;;;;5.18;1.27;;;;;;;;;;4908982;28;20066;-64
2023/10/03 14:40:09;;;;;;;3.85;1.20;;;;;;;;;;4960952;28;20158;-62
2023/10/03 14:42:38;;;;;;;5.22;1.13;;;;;;;;;;4941487;28;20594;-62
2023/10/03 14:45:08;;;;;;;;;;;;;;;;;;4934408;28;20117;-68
2023/10/03 14:47:34;;;;;;;6.22;1.17;;;;;;;;;;4959529;28;20016;-66
2023/10/03 14:50:02;;;;;;;3.65;1.20;;;;;;;;;;4944315;28;20062;-67
2023/10/03 14:52:30;;;;;;;7.85;1.38;;;;;;;;;;4958543;28;20069;-67
2023/10/03 14:54:59;;;;;;;4.80;1.00;;;;;;;;;;4921715;28;20133;-70
2023/10/03 14:57:25;;;;;;;8.88;1.20;;;;;;;;;;4957048;28;20051;-66